Time;durP1;ratioP1;P1;durP2;ratioP2;P2;SDS_P1;SDS_P2;PMS_P1;PMS_P2;Temp;Humidity;BMP_temperature;BMP_pressure;BME280_temperature;BME280_humidity;BME280_pressure;Samples;Min_cycle;Max_cycle;Signal;HPM_P1;HPM_P2
2022/02/02 06:38:17;;;;;;;;;;;;;;;;;;7425424;19;1314;-43
2022/02/02 06:40:46;;;;;;;;;;;;;;;;;;7426453;19;906;-43
2022/02/02 06:43:13;;;;;;;;;;;;;;;;;;7425572;19;1010;-41
2022/02/02 06:45:45;;;;;;;;;;;;;;;;;;7425171;19;982;-47
2022/02/02 06:48:12;;;;;;;;;;;;;;;;;;7425331;19;935;-48
2022/02/02 06:50:42;;;;;;;;;;;;;;;;;;7425413;19;1045;-42
2022/02/02 06:56:08;;;;;;;;;;;;;;;;;;7425590;19;962;-43
2022/02/02 06:58:59;;;;;;;;;;;;;;;;;;7423402;19;994;-43
2022/02/02 07:04:24;;;;;;;;;;;;;;;;;;7425478;19;1013;-42
2022/02/02 07:07:17;;;;;;;;;;;;;;;;;;7425088;19;855;-41
2022/02/02 07:10:06;;;;;;;;;;;;;;;;;;7424552;19;1026;-43
2022/02/02 07:12:52;;;;;;;;;;;;;;;;;;7425726;19;942;-43
2022/02/02 07:18:49;;;;;;;;;;;;;;;;;;7422118;19;1840;-42
2022/02/02 07:29:49;;;;;;;;;;;;;;;;;;7424166;19;998;-43
2022/02/02 07:32:24;;;;;;;;;;;;;;;;;;7423209;19;1325;-42
2022/02/02 07:35:04;;;;;;;;;;;;;;;;;;7424172;19;948;-41
2022/02/02 07:37:35;;;;;;;;;;;;;;;;;;7421630;19;1864;-42
2022/02/02 07:40:07;;;;;;;;;;;;;;;;;;7426650;19;1949;-42
2022/02/02 07:42:39;;;;;;;;;;;;;;;;;;7424209;19;2200;-42
2022/02/02 07:45:09;;;;;;;;;;;;;;;;;;7427272;19;2302;-42
2022/02/02 07:47:38;;;;;;;;;;;;;;;;;;7418905;19;2002;-42
2022/02/02 07:50:06;;;;;;;;;;;;;;;;;;7395626;19;2382;-42
2022/02/02 07:52:33;;;;;;;;;;;;;;;;;;7395623;19;2275;-41
2022/02/02 07:55:04;;;;;;;;;;;;;;;;;;7393682;19;2267;-42
2022/02/02 07:57:32;;;;;;;;;;;;;;;;;;7393566;19;2371;-46
2022/02/02 08:00:04;;;;;;;;;;;;;;;;;;7393173;19;2402;-42
2022/02/02 08:05:44;;;;;;;;;;;;;;;;;;7391950;19;1397;-42
2022/02/02 08:10:43;;;;;;;;;;;;;;;;;;7394342;19;1959;-45
2022/02/02 08:13:20;;;;;;;;;;;;;;;;;;7394396;19;2271;-42
2022/02/02 08:15:56;;;;;;;;;;;;;;;;;;7394084;19;2136;-42
2022/02/02 08:18:24;;;;;;;;;;;;;;;;;;7391820;19;2266;-42
2022/02/02 08:20:51;;;;;;;;;;;;;;;;;;7393755;19;2349;-43
2022/02/02 08:23:18;;;;;;;;;;;;;;;;;;7394394;19;2366;-50
2022/02/02 08:25:45;;;;;;;;;;;;;;;;;;7394621;19;2264;-44
2022/02/02 08:28:15;;;;;;;;;;;;;;;;;;7394322;19;2258;-45
2022/02/02 08:30:43;;;;;;;;;;;;;;;;;;7393785;19;2284;-42
2022/02/02 08:33:15;;;;;;;;;;;;;;;;;;7394312;19;2164;-42
2022/02/02 08:35:48;;;;;;;;;;;;;;;;;;7393045;19;2255;-42
2022/02/02 08:40:58;;;;;;;;;;;;;;;;;;7393189;19;1686;-42
2022/02/02 08:43:34;;;;;;;;;;;;;;;;;;7392997;19;2464;-49
2022/02/02 08:46:07;;;;;;;;;;;;;;;;;;7392700;19;2269;-42
2022/02/02 08:48:36;;;;;;;;;;;;;;;;;;7393459;19;2008;-42
2022/02/02 08:51:08;;;;;;;;;;;;;;;;;;7394132;19;2365;-43
2022/02/02 08:53:55;;;;;;;;;;;;;;;;;;7393522;19;2410;-42
2022/02/02 08:59:22;;;;;;;;;;;;;;;;;;7392060;19;1981;-41
2022/02/02 09:01:51;;;;;;;;;;;;;;;;;;7391119;19;2305;-47
2022/02/02 09:07:05;;;;;;;;;;;;;;;;;;7392832;19;1930;-41
2022/02/02 09:09:58;;;;;;;;;;;;;;;;;;7392985;19;2205;-42
2022/02/02 09:33:54;;;;;;;;;;;;;;;;;;7391685;19;2212;-42
2022/02/02 09:36:25;;;;;;;;;;;;;;;;;;7390670;19;2061;-43
2022/02/02 09:38:54;;;;;;;;;;;;;;;;;;7389678;19;2183;-43
2022/02/02 09:41:35;;;;;;;;;;;;;;;;;;7391404;19;2297;-43
2022/02/02 09:44:05;;;;;;;;;;;;;;;;;;7392404;19;2195;-45
2022/02/02 09:46:46;;;;;;;;;;;;;;;;;;7391189;19;2144;-42
2022/02/02 09:52:08;;;;;;;;;;;;;;;;;;7389310;19;1992;-42
2022/02/02 09:55:00;;;;;;;;;;;;;;;;;;7391949;19;2303;-42
2022/02/02 10:03:10;;;;;;;;;;;;;;;;;;7390544;19;2261;-41
2022/02/02 10:05:48;;;;;;;;;;;;;;;;;;7390797;19;2165;-43
2022/02/02 10:11:46;;;;;;;;;;;;;;;;;;7389495;19;2133;-42
2022/02/02 10:14:27;;;;;;;;;;;;;;;;;;7390536;19;2179;-42
2022/02/02 10:16:55;;;;;;;;;;;;;;;;;;7389425;19;2168;-42
2022/02/02 10:19:23;;;;;;;;;;;;;;;;;;7389595;19;2286;-44
2022/02/02 10:21:51;;;;;;;;;;;;;;;;;;7389724;19;2145;-43
2022/02/02 10:24:38;;;;;;;;;;;;;;;;;;7389979;19;2239;-43
2022/02/02 10:27:20;;;;;;;;;;;;;;;;;;7390197;19;2322;-42
2022/02/02 10:30:08;;;;;;;;;;;;;;;;;;7390142;19;2231;-41
2022/02/02 10:32:43;;;;;;;;;;;;;;;;;;7390165;19;2185;-44
2022/02/02 10:35:28;;;;;;;;;;;;;;;;;;7389715;19;2285;-43
2022/02/02 10:38:16;;;;;;;;;;;;;;;;;;7387639;19;2279;-42
2022/02/02 10:40:54;;;;;;;;;;;;;;;;;;7389301;19;2105;-42
2022/02/02 10:43:26;;;;;;;;;;;;;;;;;;7389171;19;2322;-44
2022/02/02 10:45:53;;;;;;;;;;;;;;;;;;7393713;19;2320;-45
2022/02/02 10:48:45;;;;;;;;;;;;;;;;;;7388207;19;2237;-51
2022/02/02 10:51:34;;;;;;;;;;;;;;;;;;7388895;19;2352;-42
2022/02/02 10:59:24;;;;;;;;;;;;;;;;;;7386764;19;2303;-42
2022/02/02 11:07:10;;;;;;;;;;;;;;;;;;7387866;19;2415;-42
2022/02/02 11:09:38;;;;;;;;;;;;;;;;;;7389047;19;1998;-43
2022/02/02 11:12:07;;;;;;;;;;;;;;;;;;7388902;19;2274;-42
2022/02/02 11:14:51;;;;;;;;;;;;;;;;;;7389150;19;2315;-43
2022/02/02 11:17:18;;;;;;;;;;;;;;;;;;7388355;19;2344;-42
2022/02/02 11:19:47;;;;;;;;;;;;;;;;;;7388291;19;2296;-41
2022/02/02 11:22:22;;;;;;;;;;;;;;;;;;7389538;19;2030;-42
2022/02/02 11:24:49;;;;;;;;;;;;;;;;;;7394697;19;2400;-42
2022/02/02 11:27:34;;;;;;;;;;;;;;;;;;7395794;19;2223;-42
2022/02/02 11:30:03;;;;;;;;;;;;;;;;;;7395475;19;2183;-42
2022/02/02 11:32:44;;;;;;;;;;;;;;;;;;7395826;19;2529;-42
2022/02/02 11:35:25;;;;;;;;;;;;;;;;;;7395650;19;2198;-42
2022/02/02 11:38:04;;;;;;;;;;;;;;;;;;7393361;19;2349;-42
2022/02/02 11:40:36;;;;;;;;;;;;;;;;;;7394626;19;2212;-42
2022/02/02 11:43:16;;;;;;;;;;;;;;;;;;7395562;19;2130;-42
2022/02/02 11:45:52;;;;;;;;;;;;;;;;;;7399110;19;2310;-44
2022/02/02 11:48:38;;;;;;;;;;;;;;;;;;7395585;19;2297;-42
2022/02/02 11:51:06;;;;;;;;;;;;;;;;;;7395228;19;2125;-42
2022/02/02 11:53:48;;;;;;;;;;;;;;;;;;7394711;19;1969;-42
2022/02/02 11:56:16;;;;;;;;;;;;;;;;;;7394473;19;2237;-42
2022/02/02 11:58:44;;;;;;;;;;;;;;;;;;7392541;19;2226;-42
2022/02/02 12:04:36;;;;;;;;;;;;;;;;;;7394504;19;2224;-42
2022/02/02 12:09:14;;;;;;;;;;;;;;;;;;7394301;19;2102;-43
2022/02/02 12:19:01;;;;;;;;;;;;;;;;;;7393370;19;2065;-44
2022/02/02 12:50:27;;;;;;;;;;;;;;;;;;7393494;19;2213;-43
2022/02/02 12:58:32;;;;;;;;;;;;;;;;;;7391559;19;2076;-44
2022/02/02 13:01:09;;;;;;;;;;;;;;;;;;7392995;19;2249;-42
2022/02/02 13:03:38;;;;;;;;;;;;;;;;;;7393056;19;2366;-42
2022/02/02 13:06:15;;;;;;;;;;;;;;;;;;7393452;19;1901;-42
2022/02/02 13:08:43;;;;;;;;;;;;;;;;;;7392627;19;2254;-51
2022/02/02 13:11:10;;;;;;;;;;;;;;;;;;7392752;19;2360;-49
2022/02/02 13:13:39;;;;;;;;;;;;;;;;;;7392731;19;1863;-42
2022/02/02 13:16:27;;;;;;;;;;;;;;;;;;7393250;19;2270;-42
2022/02/02 13:19:01;;;;;;;;;;;;;;;;;;7390898;19;2304;-42
2022/02/02 13:21:33;;;;;;;;;;;;;;;;;;7392495;19;2210;-46
2022/02/02 13:26:44;;;;;;;;;;;;;;;;;;7391801;19;2129;-42
2022/02/02 13:48:28;;;;;;;;;;;;;;;;;;7390927;19;2439;-43
2022/02/02 13:56:47;;;;;;;;;;;;;;;;;;7390020;19;1913;-42
2022/02/02 13:59:26;;;;;;;;;;;;;;;;;;7390407;19;2106;-45
2022/02/02 14:02:10;;;;;;;;;;;;;;;;;;7389717;19;5094;-42
2022/02/02 14:05:00;;;;;;;;;;;;;;;;;;7391535;19;2285;-44
2022/02/02 14:07:45;;;;;;;;;;;;;;;;;;7391101;19;2269;-45
2022/02/02 14:10:33;;;;;;;;;;;;;;;;;;7389866;19;2260;-50
2022/02/02 14:32:41;;;;;;;;;;;;;;;;;;7389534;19;2402;-42
2022/02/02 14:35:10;;;;;;;;;;;;;;;;;;7388829;19;2343;-48
2022/02/02 14:37:42;;;;;;;;;;;;;;;;;;7388477;19;2087;-41
2022/02/02 14:40:23;;;;;;;;;;;;;;;;;;7389125;19;2274;-44
2022/02/02 14:42:53;;;;;;;;;;;;;;;;;;7389743;19;2472;-48
2022/02/02 14:45:24;;;;;;;;;;;;;;;;;;7393019;19;2211;-44
2022/02/02 14:47:58;;;;;;;;;;;;;;;;;;7389253;19;2075;-45
2022/02/02 14:50:50;;;;;;;;;;;;;;;;;;7389327;19;2301;-45
2022/02/02 14:53:47;;;;;;;;;;;;;;;;;;7388806;19;2290;-43
2022/02/02 15:31:47;;;;;;;;;;;;;;;;;;7395423;19;2242;-46
2022/02/02 15:34:56;;;;;;;;;;;;;;;;;;7395569;19;2181;-47
2022/02/02 15:37:35;;;;;;;;;;;;;;;;;;7393499;19;2344;-42
2022/02/02 15:58:50;;;;;;;;;;;;;;;;;;7425270;19;914;-46
2022/02/02 16:03:52;;;;;;;;;;;;;;;;;;7425964;19;859;-45
2022/02/02 16:06:23;;;;;;;;;;;;;;;;;;7425855;19;946;-42
2022/02/02 16:08:59;;;;;;;;;;;;;;;;;;7425814;19;859;-46
2022/02/02 16:11:31;;;;;;;;;;;;;;;;;;7425257;19;1237;-44
2022/02/02 16:14:03;;;;;;;;;;;;;;;;;;7424893;19;1852;-41
2022/02/02 16:19:06;;;;;;;;;;;;;;;;;;7425183;19;974;-44
2022/02/02 16:38:00;;;;;;;;;;;;;;;;;;7380833;19;12897;-42
2022/02/02 16:40:31;;;;;;;;;;;;;;;;;;7423703;19;967;-46
2022/02/02 16:43:13;;;;;;;;;;;;;;;;;;7422476;19;974;-47
2022/02/02 16:45:53;;;;;;;;;;;;;;;;;;7429199;19;1165;-43
2022/02/02 16:48:21;;;;;;;;;;;;;;;;;;7424590;19;895;-44
2022/02/02 16:50:53;;;;;;;;;;;;;;;;;;7424280;19;895;-45
2022/02/02 16:56:02;;;;;;;;;;;;;;;;;;7421371;19;1852;-46
2022/02/02 17:30:37;;;;;;;;;;;;;;;;;;7394145;19;982;-44
2022/02/02 17:33:20;;;;;;;;;;;;;;;;;;7395230;19;843;-45
2022/02/02 17:38:25;;;;;;;;;;;;;;;;;;7394044;19;876;-49
2022/02/02 17:41:09;;;;;;;;;;;;;;;;;;7393443;19;895;-42
2022/02/02 18:18:06;;;;;;;;;;;;;;;;;;7390596;19;1853;-42
2022/02/02 18:19:20;;;;;;;;;;;;;;;;;;7390070;19;1198;-48
2022/02/02 18:21:53;;;;;;;;;;;;;;;;;;7392122;19;884;-46
2022/02/02 18:24:30;;;;;;;;;;;;;;;;;;7392300;19;884;-53
2022/02/02 18:27:04;;;;;;;;;;;;;;;;;;7391456;19;954;-48
2022/02/02 18:34:59;;;;;;;;;;;;;;;;;;7391765;19;1856;-41
2022/02/02 18:38:54;;;;;;;;;;;;;;;;;;7391861;19;1029;-42
2022/02/02 18:44:01;;;;;;;;;;;;;;;;;;7391812;19;994;-42
2022/02/02 18:52:45;;;;;;;;;;;;;;;;;;7389499;19;1880;-42
2022/02/02 18:57:20;;;;;;;;;;;;;;;;;;7391624;19;922;-44
2022/02/02 19:52:18;;;;;;;;;;;;;;;;;;7390424;19;942;-45
2022/02/02 20:03:52;;;;;;;;;;;;;;;;;;7389286;19;1026;-47
2022/02/02 20:06:39;;;;;;;;;;;;;;;;;;7389119;19;1012;-43
2022/02/02 20:11:40;;;;;;;;;;;;;;;;;;7389329;19;922;-43
2022/02/02 20:14:09;;;;;;;;;;;;;;;;;;7390025;19;1029;-44
2022/02/02 20:16:36;;;;;;;;;;;;;;;;;;7388205;19;1842;-49
2022/02/02 20:19:06;;;;;;;;;;;;;;;;;;7388048;19;912;-44
2022/02/02 20:21:38;;;;;;;;;;;;;;;;;;7388240;19;922;-50
2022/02/02 20:24:07;;;;;;;;;;;;;;;;;;7389310;19;1014;-47
2022/02/02 20:26:40;;;;;;;;;;;;;;;;;;7389542;19;915;-45
2022/02/02 20:29:09;;;;;;;;;;;;;;;;;;7388622;19;934;-49
2022/02/02 20:31:36;;;;;;;;;;;;;;;;;;7388922;19;867;-41
2022/02/02 20:34:03;;;;;;;;;;;;;;;;;;7388713;19;850;-45
2022/02/02 20:36:32;;;;;;;;;;;;;;;;;;7386901;19;1846;-48
2022/02/02 20:38:59;;;;;;;;;;;;;;;;;;7388977;19;942;-46
2022/02/02 20:41:26;;;;;;;;;;;;;;;;;;7390923;19;1016;-42
2022/02/02 20:44:02;;;;;;;;;;;;;;;;;;7396536;19;1188;-42
2022/02/02 21:10:31;;;;;;;;;;;;;;;;;;7394668;19;1153;-45
2022/02/02 21:15:45;;;;;;;;;;;;;;;;;;7393754;19;1838;-44
2022/02/02 21:18:15;;;;;;;;;;;;;;;;;;7394650;19;966;-44
2022/02/02 21:20:53;;;;;;;;;;;;;;;;;;7394532;19;870;-42
2022/02/02 21:26:12;;;;;;;;;;;;;;;;;;7394435;19;932;-44
2022/02/02 21:28:37;;;;;;;;;;;;;;;;;;7393736;19;1668;-54
2022/02/02 21:31:05;;;;;;;;;;;;;;;;;;7394761;19;874;-45
2022/02/02 21:33:35;;;;;;;;;;;;;;;;;;7393135;19;1026;-43
2022/02/02 21:36:08;;;;;;;;;;;;;;;;;;7392999;19;1846;-45
2022/02/02 21:39:18;;;;;;;;;;;;;;;;;;7394242;19;955;-47
2022/02/02 21:41:33;;;;;;;;;;;;;;;;;;7393570;19;1498;-45
2022/02/02 21:44:02;;;;;;;;;;;;;;;;;;7394767;19;1170;-47
2022/02/02 21:46:29;;;;;;;;;;;;;;;;;;7393378;19;939;-43
2022/02/02 21:49:00;;;;;;;;;;;;;;;;;;7392994;19;951;-46
2022/02/02 21:51:38;;;;;;;;;;;;;;;;;;7393788;19;963;-42
2022/02/02 21:54:17;;;;;;;;;;;;;;;;;;7393126;19;1062;-46
2022/02/02 21:56:44;;;;;;;;;;;;;;;;;;7391423;19;1854;-42
2022/02/02 21:59:12;;;;;;;;;;;;;;;;;;7393297;19;930;-42
2022/02/02 22:01:39;;;;;;;;;;;;;;;;;;7393325;19;926;-42
2022/02/02 22:04:06;;;;;;;;;;;;;;;;;;7393304;19;879;-45
2022/02/02 22:06:33;;;;;;;;;;;;;;;;;;7392692;19;1290;-42
2022/02/02 22:09:03;;;;;;;;;;;;;;;;;;7393337;19;860;-46
2022/02/02 22:11:30;;;;;;;;;;;;;;;;;;7392675;19;848;-49
2022/02/02 22:14:06;;;;;;;;;;;;;;;;;;7391966;19;878;-44
2022/02/02 22:16:35;;;;;;;;;;;;;;;;;;7391875;19;1862;-45
2022/02/02 22:19:02;;;;;;;;;;;;;;;;;;7392719;19;951;-48
2022/02/02 22:21:30;;;;;;;;;;;;;;;;;;7391942;19;971;-43
2022/02/02 22:23:59;;;;;;;;;;;;;;;;;;7392452;19;828;-46
2022/02/02 22:26:26;;;;;;;;;;;;;;;;;;7392483;19;936;-48
2022/02/02 22:28:54;;;;;;;;;;;;;;;;;;7392101;19;929;-43
2022/02/02 22:31:22;;;;;;;;;;;;;;;;;;7391673;19;1372;-45
2022/02/02 22:33:49;;;;;;;;;;;;;;;;;;7392236;19;974;-48
2022/02/02 22:36:18;;;;;;;;;;;;;;;;;;7391176;19;1873;-46
2022/02/02 22:38:46;;;;;;;;;;;;;;;;;;7391923;19;1283;-47
2022/02/02 22:41:13;;;;;;;;;;;;;;;;;;7391421;19;895;-43
2022/02/02 22:43:50;;;;;;;;;;;;;;;;;;7392071;19;1135;-45
2022/02/02 22:46:20;;;;;;;;;;;;;;;;;;7389872;19;1343;-44
2022/02/02 22:48:47;;;;;;;;;;;;;;;;;;7391562;19;1014;-45
2022/02/02 22:51:15;;;;;;;;;;;;;;;;;;7391020;19;1037;-45
2022/02/02 22:53:42;;;;;;;;;;;;;;;;;;7391996;19;856;-42
2022/02/02 22:56:09;;;;;;;;;;;;;;;;;;7391523;19;1852;-43
2022/02/02 22:58:37;;;;;;;;;;;;;;;;;;7389357;19;1037;-43
2022/02/02 23:01:04;;;;;;;;;;;;;;;;;;7391478;19;924;-43
2022/02/02 23:03:32;;;;;;;;;;;;;;;;;;7390714;19;958;-46
2022/02/02 23:06:01;;;;;;;;;;;;;;;;;;7390988;19;967;-42
2022/02/02 23:08:30;;;;;;;;;;;;;;;;;;7391376;19;908;-42
2022/02/02 23:10:58;;;;;;;;;;;;;;;;;;7390674;19;871;-43
2022/02/02 23:13:25;;;;;;;;;;;;;;;;;;7391129;19;923;-43
2022/02/02 23:16:19;;;;;;;;;;;;;;;;;;7390008;19;1853;-42
2022/02/02 23:18:42;;;;;;;;;;;;;;;;;;7391102;19;1649;-44
2022/02/02 23:21:11;;;;;;;;;;;;;;;;;;7391062;19;1126;-42
2022/02/02 23:23:43;;;;;;;;;;;;;;;;;;7391485;19;934;-44
2022/02/02 23:26:11;;;;;;;;;;;;;;;;;;7389293;19;855;-42
2022/02/02 23:28:43;;;;;;;;;;;;;;;;;;7391144;19;914;-45
2022/02/02 23:31:13;;;;;;;;;;;;;;;;;;7390123;19;904;-44
2022/02/02 23:33:42;;;;;;;;;;;;;;;;;;7390676;19;1022;-43
2022/02/02 23:36:09;;;;;;;;;;;;;;;;;;7390567;19;1856;-42
2022/02/02 23:38:37;;;;;;;;;;;;;;;;;;7389996;19;939;-46
2022/02/02 23:43:51;;;;;;;;;;;;;;;;;;7390328;19;1189;-44
2022/02/02 23:46:22;;;;;;;;;;;;;;;;;;7390488;19;960;-43
2022/02/02 23:48:54;;;;;;;;;;;;;;;;;;7390208;19;872;-44
2022/02/02 23:51:25;;;;;;;;;;;;;;;;;;7389919;19;937;-45
2022/02/02 23:53:53;;;;;;;;;;;;;;;;;;7389344;19;1036;-49
2022/02/02 23:58:55;;;;;;;;;;;;;;;;;;7389430;19;872;-42
